Aérodrome :
LOGIN :

S'inscrire | Disclaimer

   EN    FR    IT 

 










Légende :    VFR   VFR Marginal   IFR   IFR Intensif   IFR Très Intensif
Visi : 
Plafond : 
>= 8 km
>= 3000ft
5 à 8 km
1000 à 3000 ft
1500m à 5 km
500 à 1000 ft
800 à 1500m
200 à 500 ft
< 800m
< 200 ft
Symboles :   Orages  Brouillard  Fortes neiges  Fortes précipitations  Vent > 20 kt
SIGMETs :   Divers  Orages  Givrage  Turbulence  Onde Orograph.  Cendres Volcan.






- Altitude de l'aérodrome : 1 ft


EGCK - Caernarfon

DERNIER METAR :
  • 171050Z 32014KT 9999 BKN027 BKN036 09/02 Q1019

METARs EXPIRÉS :
  • 171020Z 33013KT 9999 BKN026 BKN042 09/03 Q1019
  • 170950Z 33013KT 9999 BKN026 BKN042 09/03 Q1019
  • 170920Z 33014KT 9999 -RA SCT029 BKN043 09/02 Q1019
  • 170850Z 32015KT 9999 BKN029 08/02 Q1019
  • 170820Z 33010KT 9999 SCT022 BKN040 07/03 Q1019
  • 170750Z AUTO 33009KT 9999 BKN022/// OVC037/// 07/03 Q1019
  • 170720Z AUTO 33010KT 9999 SCT022/// BKN038/// 08/03 Q1019
  • 170650Z AUTO 33011KT 9999 SCT022/// SCT034/// BKN044/// 07/03 Q1019
  • 170620Z AUTO 34009KT 9999 FEW012/// SCT045/// 07/03 Q1019 RERA

TAF TAF EGCK
Valide du 17 à 09h jusqu'au 17 à 18h UTC


170759Z 1709/1718 33012KT 9999 SCT025
PROB40
TEMPO 1709/1718 7000 SHRA BKN014



MET'MAP, la Météo Aéronautique d'un coup d'oeil ! - Copyright ORBIFLY Décembre 2007 - Disclaimer

ORBIFLY MET'MAP TEAM :

Programmation & Développement : Alexandra Zaïnal
Sur une idée originale de : Baudouin d'Aumeries
Soutien technique & logistique : Manuel Goepfert
Assistance : Marc-Olivier Méhu




SOURCES & CREDITS :

   NOAA